Time;durP1;ratioP1;P1;durP2;ratioP2;P2;SDS_P1;SDS_P2;PMS_P1;PMS_P2;Temp;Humidity;BMP_temperature;BMP_pressure;BME280_temperature;BME280_humidity;BME280_pressure;Samples;Min_cycle;Max_cycle;Signal;HPM_P1;HPM_P2
2021/10/25 00:00:32;;;;;;;15.30;9.27;;;4.90;99.90;;;;;;6283186;22;20391;-85
2021/10/25 00:02:57;;;;;;;10.07;9.00;;;4.80;99.90;;;;;;6274698;22;20507;-86
2021/10/25 00:05:43;;;;;;;10.07;9.17;;;4.90;99.90;;;;;;6271915;22;20188;-86
2021/10/25 00:08:13;;;;;;;12.20;10.07;;;5.00;99.90;;;;;;6271735;22;20245;-86
2021/10/25 00:10:43;;;;;;;10.13;9.00;;;4.90;99.90;;;;;;6291305;22;20403;-86
2021/10/25 00:13:13;;;;;;;12.33;9.23;;;4.90;99.90;;;;;;6271814;22;20451;-86
2021/10/25 00:15:39;;;;;;;11.20;9.47;;;4.80;99.90;;;;;;6271103;22;20436;-86
2021/10/25 00:18:06;;;;;;;13.40;9.47;;;4.70;99.90;;;;;;6271011;22;20451;-86
2021/10/25 00:20:32;;;;;;;10.50;9.40;;;4.80;99.90;;;;;;6271452;22;20397;-86
2021/10/25 00:23:00;;;;;;;12.70;11.00;;;4.80;99.90;;;;;;6270397;22;20732;-86
2021/10/25 00:25:25;;;;;;;11.07;9.90;;;4.70;99.90;;;;;;6270807;22;20511;-86
2021/10/25 00:27:52;;;;;;;10.30;9.07;;;4.80;99.90;;;;;;6271297;22;20385;-87
2021/10/25 00:30:18;;;;;;;10.70;9.60;;;4.70;99.90;;;;;;6272155;22;20465;-86
2021/10/25 00:32:44;;;;;;;10.40;9.30;;;4.50;99.90;;;;;;6270398;22;20421;-87
2021/10/25 00:35:11;;;;;;;11.97;9.53;;;4.50;99.90;;;;;;6298334;22;20237;-87
2021/10/25 00:37:39;;;;;;;10.17;9.17;;;4.50;99.90;;;;;;6271641;22;20423;-86
2021/10/25 00:40:06;;;;;;;12.00;10.70;;;4.40;99.90;;;;;;6270454;22;20371;-87
2021/10/25 00:45:25;;;;;;;10.30;9.20;;;4.30;99.90;;;;;;6295155;22;20416;-86
2021/10/25 00:47:52;;;;;;;11.53;9.37;;;4.20;99.90;;;;;;6271291;22;20944;-87
2021/10/25 00:50:18;;;;;;;8.97;8.03;;;4.20;99.90;;;;;;6246008;22;20388;-87
2021/10/25 00:52:44;;;;;;;11.17;8.80;;;4.10;99.90;;;;;;6270407;22;20397;-86
2021/10/25 00:55:11;;;;;;;15.53;9.80;;;4.00;99.90;;;;;;6270427;22;20430;-88
2021/10/25 00:57:37;;;;;;;15.77;10.43;;;4.00;99.90;;;;;;6271542;22;20793;-87
2021/10/25 01:00:16;;;;;;;11.53;10.33;;;3.90;99.90;;;;;;6271421;22;20384;-87
2021/10/25 01:02:41;;;;;;;11.50;9.73;;;4.00;99.90;;;;;;6270446;22;20419;-88
2021/10/25 01:05:08;;;;;;;13.83;10.80;;;3.90;99.90;;;;;;6270089;22;20423;-87
2021/10/25 01:07:35;;;;;;;14.37;11.00;;;4.00;99.90;;;;;;6271502;22;20197;-88
2021/10/25 01:10:02;;;;;;;11.43;10.43;;;4.00;99.90;;;;;;6270771;22;20877;-88
2021/10/25 01:12:32;;;;;;;14.87;11.53;;;4.00;99.90;;;;;;6270893;22;20403;-88
2021/10/25 01:15:01;;;;;;;12.40;11.20;;;4.00;99.90;;;;;;6296175;22;20396;-88
2021/10/25 01:17:27;;;;;;;12.00;10.70;;;4.00;99.90;;;;;;6270737;22;20506;-88
2021/10/25 01:19:59;;;;;;;12.70;10.30;;;4.00;99.90;;;;;;6269538;22;20432;-87
2021/10/25 01:22:25;;;;;;;12.70;10.80;;;4.00;99.90;;;;;;6271108;22;20725;-88
2021/10/25 01:24:52;;;;;;;11.27;10.13;;;4.00;99.90;;;;;;6270724;22;20392;-87
2021/10/25 01:27:19;;;;;;;14.17;10.63;;;4.00;99.90;;;;;;6270077;22;20440;-88
2021/10/25 01:29:45;;;;;;;18.23;10.00;;;4.00;99.90;;;;;;6280648;22;20388;-87
2021/10/25 01:32:15;;;;;;;10.80;9.33;;;4.00;99.90;;;;;;6279985;22;20408;-87
2021/10/25 01:35:04;;;;;;;15.57;10.50;;;4.00;99.90;;;;;;6272085;22;20165;-87
2021/10/25 01:37:32;;;;;;;22.13;9.97;;;3.90;99.90;;;;;;6271640;22;20396;-86
2021/10/25 01:39:58;;;;;;;18.60;10.30;;;3.80;99.90;;;;;;6246064;22;20426;-86
2021/10/25 01:42:25;;;;;;;20.60;10.73;;;3.80;99.90;;;;;;6271594;22;20455;-86
2021/10/25 01:44:51;;;;;;;16.43;10.13;;;3.70;99.90;;;;;;6270762;22;20253;-87
2021/10/25 01:47:16;;;;;;;14.20;10.03;;;3.60;99.90;;;;;;6271109;22;20849;-87
2021/10/25 01:49:43;;;;;;;12.97;9.83;;;3.60;99.90;;;;;;6271221;22;20661;-86
2021/10/25 01:52:09;;;;;;;11.67;10.53;;;3.60;99.90;;;;;;6270810;22;20169;-87
2021/10/25 01:54:35;;;;;;;14.40;10.70;;;3.60;99.90;;;;;;6271319;22;20411;-87
2021/10/25 01:57:01;;;;;;;14.20;10.77;;;3.60;99.90;;;;;;6270914;22;20158;-87
2021/10/25 01:59:27;;;;;;;11.10;10.00;;;3.60;99.90;;;;;;6268737;22;20388;-87
2021/10/25 02:01:53;;;;;;;13.27;10.97;;;3.70;99.90;;;;;;6271699;22;20207;-87
2021/10/25 02:04:19;;;;;;;12.30;11.00;;;3.80;99.90;;;;;;6273400;22;20408;-88
2021/10/25 02:06:45;;;;;;;12.60;11.30;;;3.80;99.90;;;;;;6271978;22;20531;-88
2021/10/25 02:09:21;;;;;;;11.70;10.50;;;3.80;99.90;;;;;;6245546;22;20162;-87
2021/10/25 02:11:57;;;;;;;11.57;10.37;;;3.90;99.90;;;;;;6290359;22;20165;-86
2021/10/25 02:14:23;;;;;;;12.20;10.43;;;3.90;99.90;;;;;;6273198;22;20388;-87
2021/10/25 02:17:14;;;;;;;13.10;11.53;;;3.90;99.90;;;;;;6299284;22;20399;-87
2021/10/25 02:19:46;;;;;;;12.03;10.73;;;3.90;99.90;;;;;;6299648;22;20865;-87
2021/10/25 02:22:15;;;;;;;12.90;11.50;;;3.90;99.90;;;;;;6248543;22;20491;-87
2021/10/25 02:24:43;;;;;;;13.10;11.13;;;3.90;99.90;;;;;;6271290;22;20408;-88
2021/10/25 02:27:12;;;;;;;11.90;10.70;;;3.80;99.90;;;;;;6248541;22;20527;-87
2021/10/25 02:29:43;;;;;;;12.30;10.90;;;3.70;99.90;;;;;;6246825;22;20417;-87
2021/10/25 02:32:15;;;;;;;11.73;10.50;;;3.80;99.90;;;;;;6286443;22;20391;-87
2021/10/25 02:34:45;;;;;;;12.63;10.77;;;3.70;99.90;;;;;;6300159;22;20380;-87
2021/10/25 02:37:14;;;;;;;12.60;10.10;;;3.80;99.90;;;;;;6299634;22;20384;-87
2021/10/25 02:42:38;;;;;;;12.77;10.53;;;3.80;99.90;;;;;;6300904;22;20383;-87
2021/10/25 02:45:20;;;;;;;12.00;10.53;;;3.90;99.90;;;;;;6272112;22;20399;-87
2021/10/25 02:47:46;;;;;;;11.17;10.00;;;3.90;99.90;;;;;;6272661;22;20403;-87
2021/10/25 02:50:12;;;;;;;12.43;10.60;;;3.80;99.90;;;;;;6273494;22;20484;-86
2021/10/25 02:52:38;;;;;;;10.33;9.23;;;3.90;99.90;;;;;;6272474;22;20420;-86
2021/10/25 02:55:05;;;;;;;11.63;10.23;;;3.80;99.90;;;;;;6272144;22;20616;-87
2021/10/25 02:57:45;;;;;;;14.50;11.20;;;3.80;99.90;;;;;;6272440;22;20450;-87
2021/10/25 03:00:14;;;;;;;11.87;10.47;;;3.80;99.90;;;;;;6283112;22;20407;-86
2021/10/25 03:02:40;;;;;;;11.37;10.23;;;3.70;99.90;;;;;;6275590;22;20418;-87
2021/10/25 03:05:07;;;;;;;11.60;10.40;;;3.70;99.90;;;;;;6272316;22;20449;-87
2021/10/25 03:07:33;;;;;;;13.20;10.90;;;3.80;99.90;;;;;;6272698;22;20409;-87
2021/10/25 03:09:59;;;;;;;11.67;10.47;;;3.70;99.90;;;;;;6273007;22;20393;-87
2021/10/25 03:12:26;;;;;;;12.73;11.23;;;3.80;99.90;;;;;;6272445;22;20822;-86
2021/10/25 03:14:53;;;;;;;11.80;10.60;;;3.80;99.90;;;;;;6271230;22;20159;-86
2021/10/25 03:17:19;;;;;;;12.63;10.37;;;3.90;99.90;;;;;;6272837;22;20713;-88
2021/10/25 03:19:45;;;;;;;15.03;10.70;;;3.80;99.90;;;;;;6272792;22;20407;-88
2021/10/25 03:22:12;;;;;;;12.90;10.07;;;3.70;99.90;;;;;;6273105;22;20814;-87
2021/10/25 03:24:39;;;;;;;14.30;9.90;;;3.80;99.90;;;;;;6272368;22;20721;-87
2021/10/25 03:27:05;;;;;;;12.67;9.70;;;3.70;99.90;;;;;;6267955;22;20447;-87
2021/10/25 03:29:31;;;;;;;10.63;9.60;;;3.70;99.90;;;;;;6271647;22;20507;-86
2021/10/25 03:31:59;;;;;;;11.57;10.37;;;3.70;99.90;;;;;;6271545;22;20556;-86
2021/10/25 03:34:26;;;;;;;12.10;10.90;;;3.60;99.90;;;;;;6269624;22;20798;-87
2021/10/25 03:36:53;;;;;;;10.40;9.30;;;3.60;99.90;;;;;;6271018;22;20400;-87
2021/10/25 03:39:24;;;;;;;12.77;10.00;;;3.50;99.90;;;;;;6270995;22;20396;-87
2021/10/25 03:41:53;;;;;;;10.70;9.47;;;3.60;99.90;;;;;;6299022;22;20483;-87
2021/10/25 03:44:24;;;;;;;11.37;9.40;;;3.50;99.90;;;;;;6271835;22;20418;-87
2021/10/25 03:47:06;;;;;;;11.10;10.00;;;3.40;99.90;;;;;;6271678;22;20435;-88
2021/10/25 03:49:38;;;;;;;12.13;10.30;;;3.40;99.90;;;;;;6271173;22;20466;-88
2021/10/25 03:52:27;;;;;;;11.07;9.30;;;3.40;99.90;;;;;;6299726;22;20484;-89
2021/10/25 04:00:13;;;;;;;11.47;10.30;;;3.30;99.90;;;;;;6299422;22;20422;-87
2021/10/25 04:49:35;;;;;;;13.50;10.20;;;3.60;99.90;;;;;;6234633;22;20491;-89
2021/10/25 04:52:01;;;;;;;15.03;9.90;;;3.60;99.90;;;;;;6229694;22;20702;-88
2021/10/25 04:54:27;;;;;;;11.63;9.83;;;3.60;99.90;;;;;;6231646;22;20635;-88
2021/10/25 04:56:53;;;;;;;10.63;9.53;;;3.60;99.90;;;;;;6231165;22;20493;-87
2021/10/25 04:59:21;;;;;;;13.90;10.50;;;3.60;99.90;;;;;;6232515;22;20537;-87
2021/10/25 05:01:47;;;;;;;11.27;9.83;;;3.60;99.90;;;;;;6234119;22;20213;-88
2021/10/25 05:04:12;;;;;;;10.03;9.00;;;3.70;99.90;;;;;;6233158;22;20385;-87
2021/10/25 05:06:38;;;;;;;11.57;9.50;;;3.70;99.90;;;;;;6234292;22;20225;-88
2021/10/25 05:09:04;;;;;;;11.77;10.33;;;3.70;99.90;;;;;;6232471;22;20164;-89
2021/10/25 05:11:29;;;;;;;11.27;10.00;;;3.70;99.90;;;;;;6234152;22;20625;-89
2021/10/25 05:13:55;;;;;;;10.23;9.10;;;3.80;99.90;;;;;;6233637;22;20147;-89
2021/10/25 05:16:20;;;;;;;10.73;9.00;;;3.80;99.90;;;;;;6234965;22;20173;-88
2021/10/25 05:18:46;;;;;;;15.10;9.97;;;3.60;99.90;;;;;;6233834;22;20186;-88
2021/10/25 05:21:12;;;;;;;14.10;10.30;;;3.70;99.90;;;;;;6232941;22;20162;-86
2021/10/25 05:23:38;;;;;;;12.00;10.70;;;3.70;99.90;;;;;;6234278;22;20186;-87
2021/10/25 05:26:03;;;;;;;14.20;11.60;;;3.50;99.90;;;;;;6232305;22;20183;-88
2021/10/25 05:28:29;;;;;;;14.80;11.73;;;3.50;99.90;;;;;;6232681;22;20687;-88
2021/10/25 05:31:11;;;;;;;13.30;11.90;;;3.40;99.90;;;;;;6233394;22;20155;-88
2021/10/25 05:33:39;;;;;;;19.30;13.63;;;3.40;99.90;;;;;;6233423;22;20213;-87
2021/10/25 05:36:05;;;;;;;13.70;11.50;;;3.40;99.90;;;;;;6232279;22;20929;-88
2021/10/25 05:38:31;;;;;;;14.40;11.40;;;3.40;99.90;;;;;;6235485;22;20421;-87
2021/10/25 05:40:57;;;;;;;15.20;11.27;;;3.50;99.90;;;;;;6236026;22;20432;-89
2021/10/25 05:43:22;;;;;;;11.57;10.43;;;3.40;99.90;;;;;;6236998;22;20177;-87
2021/10/25 05:45:48;;;;;;;12.57;11.30;;;3.30;99.90;;;;;;6236619;22;20799;-89
2021/10/25 05:48:14;;;;;;;12.30;10.57;;;3.30;99.90;;;;;;6236560;22;20244;-89
2021/10/25 05:50:42;;;;;;;11.83;10.10;;;3.30;99.90;;;;;;6238689;22;20159;-89
2021/10/25 05:53:08;;;;;;;11.90;9.67;;;3.40;99.90;;;;;;6239154;22;20386;-87
2021/10/25 05:55:44;;;;;;;10.67;9.17;;;3.50;99.90;;;;;;6239025;22;20870;-89
2021/10/25 05:58:49;;;;;;;9.80;8.80;;;3.60;99.90;;;;;;6240207;22;20396;-90
2021/10/25 06:01:18;;;;;;;10.03;9.03;;;3.60;99.90;;;;;;6256956;22;20408;-89
2021/10/25 06:03:47;;;;;;;18.23;8.87;;;3.70;99.90;;;;;;6240181;22;20456;-89
2021/10/25 06:06:15;;;;;;;11.00;9.07;;;3.70;99.90;;;;;;6237776;22;20426;-89
2021/10/25 06:08:44;;;;;;;11.10;9.83;;;3.70;99.90;;;;;;6238829;22;20791;-90
2021/10/25 06:11:11;;;;;;;12.80;11.03;;;3.60;99.90;;;;;;6237545;22;20417;-90
2021/10/25 06:13:42;;;;;;;12.23;9.83;;;3.60;99.90;;;;;;6236468;22;20164;-90
2021/10/25 06:16:19;;;;;;;11.10;9.87;;;3.50;99.90;;;;;;6235940;22;20770;-87
2021/10/25 06:18:45;;;;;;;11.40;9.60;;;3.50;99.90;;;;;;6237196;22;20690;-89
2021/10/25 06:21:11;;;;;;;10.93;9.13;;;3.50;99.90;;;;;;6236513;22;20417;-89
2021/10/25 06:23:37;;;;;;;10.57;8.70;;;3.50;99.90;;;;;;6238211;23;20456;-89
2021/10/25 06:26:04;;;;;;;10.73;8.90;;;3.40;99.90;;;;;;6238195;22;20432;-89
2021/10/25 06:28:30;;;;;;;10.87;9.77;;;3.40;99.90;;;;;;6238085;22;20509;-89
2021/10/25 06:31:03;;;;;;;11.53;9.97;;;3.40;99.90;;;;;;6237859;22;20463;-92
2021/10/25 06:33:29;;;;;;;10.20;9.10;;;3.40;99.90;;;;;;6235111;22;20412;-88
2021/10/25 06:36:06;;;;;;;11.10;8.60;;;3.40;99.90;;;;;;6237680;22;21139;-89
2021/10/25 06:38:37;;;;;;;10.63;9.53;;;3.40;99.90;;;;;;6237751;22;20390;-88
2021/10/25 06:41:03;;;;;;;11.50;9.50;;;3.40;99.90;;;;;;6237736;22;20398;-89
2021/10/25 06:43:29;;;;;;;11.47;10.37;;;3.50;99.90;;;;;;6238108;22;20394;-89
2021/10/25 06:45:56;;;;;;;14.73;12.70;;;3.60;99.90;;;;;;6239802;22;20433;-88
2021/10/25 06:48:23;;;;;;;14.10;11.93;;;3.70;99.90;;;;;;6238484;22;20598;-88
2021/10/25 06:50:51;;;;;;;10.90;9.80;;;3.60;99.90;;;;;;6240268;22;20398;-88
2021/10/25 06:53:25;;;;;;;11.03;9.23;;;3.70;99.90;;;;;;6240418;22;21506;-89
2021/10/25 06:55:51;;;;;;;11.20;9.40;;;3.60;99.90;;;;;;6240956;22;20771;-88
2021/10/25 06:58:21;;;;;;;11.17;9.33;;;3.60;99.90;;;;;;6240645;22;20447;-88
2021/10/25 07:00:58;;;;;;;12.13;9.20;;;3.80;99.90;;;;;;6241283;22;20163;-88
2021/10/25 07:03:24;;;;;;;10.67;9.53;;;3.70;99.90;;;;;;6240871;22;20397;-88
2021/10/25 07:05:50;;;;;;;10.00;9.00;;;3.60;99.90;;;;;;6240574;22;20449;-89
2021/10/25 07:08:15;;;;;;;10.90;9.03;;;3.60;99.90;;;;;;6240537;22;20480;-88
2021/10/25 07:10:41;;;;;;;9.93;8.90;;;3.50;99.90;;;;;;6239888;22;20160;-88
2021/10/25 07:13:07;;;;;;;14.40;12.10;;;3.70;99.90;;;;;;6240693;22;20177;-88
2021/10/25 07:15:38;;;;;;;14.27;12.93;;;3.80;99.90;;;;;;6240639;22;20482;-88
2021/10/25 07:18:15;;;;;;;12.33;11.13;;;3.80;99.90;;;;;;6240897;22;20406;-87
2021/10/25 08:02:16;;;;;;;9.70;7.90;;;6.70;99.90;;;;;;6229065;22;20855;-89
2021/10/25 08:07:55;;;;;;;7.37;6.67;;;6.90;99.90;;;;;;6229135;22;20518;-88
2021/10/25 08:10:01;;;;;;;10.60;8.70;;;7.10;99.90;;;;;;6218248;22;20394;-89
2021/10/25 08:12:29;;;;;;;8.90;8.00;;;7.10;99.90;;;;;;6227320;22;20404;-89
2021/10/25 08:15:06;;;;;;;8.87;8.00;;;7.20;99.90;;;;;;6227104;22;20398;-89
2021/10/25 08:17:44;;;;;;;8.67;7.43;;;7.30;99.90;;;;;;6227317;22;20410;-89
2021/10/25 08:20:11;;;;;;;9.03;8.13;;;7.50;99.90;;;;;;6227135;22;20398;-88
2021/10/25 08:22:38;;;;;;;9.07;7.90;;;7.40;99.90;;;;;;6227351;22;20390;-89
2021/10/25 08:25:04;;;;;;;8.63;7.73;;;7.30;99.90;;;;;;6227941;22;20402;-88
2021/10/25 08:27:30;;;;;;;8.77;7.87;;;7.50;99.90;;;;;;6227741;22;20437;-89
2021/10/25 08:29:56;;;;;;;9.07;7.73;;;7.50;99.90;;;;;;6228079;22;20394;-88
2021/10/25 08:32:41;;;;;;;10.37;7.20;;;7.70;99.90;;;;;;6228567;22;20717;-89
2021/10/25 08:40:30;;;;;;;8.77;7.90;;;7.90;99.90;;;;;;6230412;22;20393;-89
2021/10/25 08:42:56;;;;;;;8.60;7.70;;;7.80;99.90;;;;;;6205434;22;20404;-88
2021/10/25 08:45:32;;;;;;;9.30;7.70;;;7.70;99.90;;;;;;6228396;22;20395;-88
2021/10/25 08:48:02;;;;;;;13.20;8.90;;;7.90;99.90;;;;;;6229351;22;20190;-88
2021/10/25 08:50:34;;;;;;;8.17;7.43;;;8.00;99.90;;;;;;6230538;22;20753;-88
2021/10/25 08:53:05;;;;;;;8.07;7.27;;;8.00;99.90;;;;;;6228704;22;20418;-88
2021/10/25 08:55:31;;;;;;;8.27;7.43;;;8.10;99.90;;;;;;6227728;22;20923;-88
2021/10/25 08:57:57;;;;;;;9.30;7.87;;;8.10;99.90;;;;;;6228432;22;20443;-88
2021/10/25 09:00:41;;;;;;;8.17;7.47;;;7.90;99.90;;;;;;6238353;22;20872;-87
2021/10/25 09:03:08;;;;;;;9.10;8.20;;;8.00;99.90;;;;;;6229129;22;20427;-88
2021/10/25 09:05:35;;;;;;;9.23;7.40;;;8.10;99.90;;;;;;6202491;23;20397;-88
2021/10/25 09:08:06;;;;;;;8.50;7.77;;;8.10;99.90;;;;;;6229810;22;20468;-88
2021/10/25 09:10:41;;;;;;;12.03;7.73;;;8.00;99.90;;;;;;6227579;22;20410;-87
2021/10/25 09:13:18;;;;;;;6.93;6.33;;;8.10;99.90;;;;;;6229230;22;20401;-88
2021/10/25 09:15:50;;;;;;;8.60;7.43;;;8.20;99.90;;;;;;6225113;22;20404;-87
2021/10/25 09:18:26;;;;;;;7.40;6.70;;;8.10;99.90;;;;;;6227827;22;20487;-87
2021/10/25 09:21:07;;;;;;;8.10;7.13;;;8.10;99.90;;;;;;6228572;22;20395;-88
2021/10/25 09:23:38;;;;;;;9.10;6.83;;;8.30;99.90;;;;;;6226889;22;20460;-88
2021/10/25 09:26:29;;;;;;;7.50;6.77;;;8.20;99.90;;;;;;6226838;22;20819;-88
2021/10/25 09:29:00;;;;;;;7.07;5.90;;;8.40;99.90;;;;;;6227616;22;20405;-88
2021/10/25 09:31:31;;;;;;;7.07;6.47;;;8.50;99.90;;;;;;6229636;22;20392;-86
2021/10/25 09:34:11;;;;;;;8.40;6.90;;;8.60;99.90;;;;;;6227132;22;20876;-88
2021/10/25 09:36:50;;;;;;;8.50;6.93;;;8.80;99.90;;;;;;6227380;22;20878;-88
2021/10/25 09:39:38;;;;;;;7.47;6.80;;;9.30;99.90;;;;;;6228958;22;20416;-86
2021/10/25 09:50:18;;;;;;;6.30;5.70;;;9.40;99.90;;;;;;6229565;23;20887;-88
2021/10/25 09:52:44;;;;;;;6.90;6.30;;;9.40;99.90;;;;;;6227128;22;20457;-87
2021/10/25 09:55:15;;;;;;;7.20;6.60;;;9.50;99.90;;;;;;6226060;22;20389;-88
2021/10/25 10:00:12;;;;;;;7.90;6.70;;;9.70;99.90;;;;;;6230108;22;20381;-89
2021/10/25 10:02:39;;;;;;;8.60;7.73;;;9.80;99.90;;;;;;6227407;22;20397;-89
2021/10/25 10:05:06;;;;;;;8.73;7.93;;;9.90;99.90;;;;;;6232685;22;20393;-89
2021/10/25 10:07:33;;;;;;;7.47;6.77;;;10.00;99.90;;;;;;6231539;22;20832;-89
2021/10/25 10:09:59;;;;;;;7.87;7.07;;;10.00;99.90;;;;;;6226366;22;20394;-89
2021/10/25 10:12:29;;;;;;;8.20;6.57;;;10.20;99.90;;;;;;6228005;22;20416;-90
2021/10/25 10:15:09;;;;;;;6.60;6.00;;;10.60;99.90;;;;;;6228883;22;20167;-89
2021/10/25 10:17:43;;;;;;;7.83;6.10;;;11.40;99.90;;;;;;6226114;23;20461;-89
2021/10/25 10:20:25;;;;;;;6.47;5.97;;;11.90;99.90;;;;;;6228803;22;20393;-88
2021/10/25 10:22:53;;;;;;;10.23;6.47;;;12.20;99.90;;;;;;6228404;22;20401;-88
2021/10/25 10:25:34;;;;;;;7.37;6.17;;;12.10;99.90;;;;;;6230151;22;20386;-89
2021/10/25 10:28:12;;;;;;;6.77;5.90;;;12.10;99.90;;;;;;6230498;22;20413;-88
2021/10/25 10:31:24;;;;;;;7.00;6.40;;;12.10;99.90;;;;;;6241206;22;20421;-89
2021/10/25 10:33:54;;;;;;;8.70;6.40;;;12.00;99.90;;;;;;6196064;22;20428;-88
2021/10/25 10:36:31;;;;;;;6.30;5.70;;;11.90;99.90;;;;;;6227351;22;20429;-88
2021/10/25 10:39:16;;;;;;;6.73;6.13;;;11.90;99.90;;;;;;6228087;22;20394;-88
2021/10/25 10:41:51;;;;;;;7.13;6.50;;;11.80;99.90;;;;;;6229599;22;20479;-87
2021/10/25 10:44:20;;;;;;;8.20;6.53;;;11.90;99.90;;;;;;6227599;22;20489;-88
2021/10/25 10:46:54;;;;;;;12.70;11.37;;;11.70;99.90;;;;;;6229130;22;20448;-88
2021/10/25 10:49:56;;;;;;;7.40;6.70;;;11.80;99.90;;;;;;6227820;22;20405;-88
2021/10/25 10:52:43;;;;;;;6.60;6.00;;;12.00;99.90;;;;;;6229175;22;20487;-88
2021/10/25 10:55:16;;;;;;;7.73;6.57;;;12.20;99.90;;;;;;6229337;22;20468;-87
2021/10/25 11:00:12;;;;;;;8.43;7.53;;;12.60;99.90;;;;;;6238943;22;20733;-88
2021/10/25 11:02:55;;;;;;;7.60;6.63;;;12.80;99.90;;;;;;6237337;22;20254;-89
2021/10/25 11:05:42;;;;;;;6.67;6.03;;;12.90;99.00;;;;;;6237034;22;20393;-87
2021/10/25 11:08:17;;;;;;;6.27;5.67;;;13.00;98.40;;;;;;6237032;22;20953;-89
2021/10/25 11:10:45;;;;;;;6.40;5.80;;;13.50;98.40;;;;;;6237510;22;20401;-88
2021/10/25 11:13:21;;;;;;;6.57;5.97;;;14.50;97.10;;;;;;6237210;22;20394;-87
2021/10/25 11:15:57;;;;;;;5.97;5.37;;;15.30;95.80;;;;;;6236523;22;20393;-88
2021/10/25 11:18:28;;;;;;;5.97;5.47;;;15.50;93.60;;;;;;6236736;22;20438;-88
2021/10/25 11:21:33;;;;;;;5.17;4.77;;;15.30;93.70;;;;;;6236215;22;20490;-87
2021/10/25 11:24:10;;;;;;;4.63;4.30;;;15.90;92.80;;;;;;6230850;22;21020;-87
2021/10/25 11:26:40;;;;;;;5.50;4.83;;;16.20;91.00;;;;;;6233430;23;20736;-87
2021/10/25 11:29:39;;;;;;;5.67;5.27;;;16.20;90.50;;;;;;6232132;22;20727;-88
2021/10/25 11:32:19;;;;;;;4.83;4.43;;;15.60;92.60;;;;;;6236195;22;20378;-88
2021/10/25 11:34:54;;;;;;;5.17;4.77;;;16.00;91.80;;;;;;6232618;22;20392;-89
2021/10/25 11:37:21;;;;;;;5.23;4.73;;;16.60;90.50;;;;;;6233979;22;20170;-89
2021/10/25 11:39:57;;;;;;;5.27;4.87;;;17.40;90.50;;;;;;6232479;22;20425;-88
2021/10/25 11:42:26;;;;;;;5.33;4.83;;;18.00;90.70;;;;;;6232347;22;20394;-89
2021/10/25 11:44:54;;;;;;;5.10;4.33;;;18.00;87.30;;;;;;6234551;22;20397;-89
2021/10/25 11:47:28;;;;;;;4.70;4.30;;;18.30;88.80;;;;;;6235959;22;20720;-89
2021/10/25 11:50:00;;;;;;;6.10;5.57;;;18.70;90.50;;;;;;6237138;22;20397;-90
2021/10/25 11:52:32;;;;;;;4.50;4.07;;;19.50;85.90;;;;;;6235271;22;20400;-88
2021/10/25 11:54:58;;;;;;;6.30;5.53;;;20.20;81.70;;;;;;6234291;22;20417;-89
2021/10/25 11:57:24;;;;;;;5.07;4.67;;;20.30;81.80;;;;;;6233544;22;20844;-89
2021/10/25 12:00:02;;;;;;;7.53;5.27;;;20.50;81.40;;;;;;6246270;22;20401;-90
2021/10/25 12:02:29;;;;;;;4.77;4.40;;;21.20;78.10;;;;;;6235196;22;20229;-89
2021/10/25 12:04:56;;;;;;;4.80;4.40;;;22.10;77.00;;;;;;6226270;22;20783;-89
2021/10/25 12:07:23;;;;;;;4.50;4.20;;;23.00;71.10;;;;;;6224420;22;20725;-89
2021/10/25 12:09:56;;;;;;;6.43;4.23;;;23.40;68.70;;;;;;6224577;22;20396;-90
2021/10/25 12:12:22;;;;;;;5.13;3.90;;;23.90;65.50;;;;;;6225669;22;20589;-92
2021/10/25 12:14:50;;;;;;;4.30;4.00;;;24.60;62.90;;;;;;6227189;22;20447;-88
2021/10/25 12:17:21;;;;;;;5.60;3.70;;;24.10;59.10;;;;;;6224469;23;20429;-89
2021/10/25 12:19:47;;;;;;;4.63;3.67;;;24.10;59.70;;;;;;6233465;22;20390;-89
2021/10/25 12:22:16;;;;;;;4.50;4.07;;;24.60;58.90;;;;;;6235222;22;20769;-90
2021/10/25 12:24:45;;;;;;;3.50;3.20;;;24.70;56.60;;;;;;6234590;22;20175;-89
2021/10/25 12:27:16;;;;;;;4.43;3.97;;;24.90;54.50;;;;;;6234683;22;20517;-87
2021/10/25 12:29:43;;;;;;;5.20;4.80;;;24.30;57.00;;;;;;6234110;22;20397;-89
2021/10/25 12:32:12;;;;;;;4.57;4.17;;;23.50;58.10;;;;;;6236313;22;20705;-90
2021/10/25 12:35:07;;;;;;;4.83;3.57;;;22.90;56.80;;;;;;6234510;22;20389;-90
2021/10/25 12:37:34;;;;;;;3.53;3.30;;;23.00;56.90;;;;;;6213825;22;20393;-90
2021/10/25 12:40:01;;;;;;;4.40;3.40;;;22.90;57.00;;;;;;6234478;22;20401;-90
2021/10/25 12:42:41;;;;;;;3.23;2.93;;;23.50;57.50;;;;;;6234975;22;20390;-90
2021/10/25 12:45:15;;;;;;;4.83;2.97;;;22.90;56.40;;;;;;6234935;23;20390;-89
2021/10/25 12:47:51;;;;;;;3.67;3.37;;;22.10;59.20;;;;;;6234250;22;20510;-89
2021/10/25 12:50:17;;;;;;;3.77;3.47;;;21.30;59.80;;;;;;6232821;22;20417;-89
2021/10/25 12:53:03;;;;;;;2.80;2.60;;;20.20;62.70;;;;;;6234780;22;20747;-90
2021/10/25 12:55:29;;;;;;;4.40;2.90;;;19.90;63.00;;;;;;6233769;22;20173;-89
2021/10/25 12:57:57;;;;;;;4.60;4.20;;;19.80;65.90;;;;;;6232532;22;20731;-91
2021/10/25 13:00:24;;;;;;;3.17;2.87;;;19.40;64.80;;;;;;6234665;22;20221;-91
2021/10/25 13:02:53;;;;;;;3.20;2.60;;;19.50;66.20;;;;;;6234090;22;20402;-90
2021/10/25 13:05:21;;;;;;;3.30;3.10;;;19.80;66.30;;;;;;6224219;22;20401;-89
2021/10/25 13:07:53;;;;;;;4.07;3.67;;;19.60;75.80;;;;;;6224833;22;20437;-90
2021/10/25 13:10:23;;;;;;;3.70;3.40;;;19.80;80.40;;;;;;6226182;22;20390;-89
2021/10/25 13:12:51;;;;;;;4.20;3.90;;;20.10;77.20;;;;;;6234694;22;20507;-90
2021/10/25 13:15:37;;;;;;;4.60;3.90;;;19.90;79.40;;;;;;6232968;22;20614;-90
2021/10/25 13:18:05;;;;;;;4.60;4.20;;;19.20;80.90;;;;;;6234340;22;20420;-90
2021/10/25 13:20:35;;;;;;;4.50;4.10;;;19.10;83.30;;;;;;6232637;22;20824;-87
2021/10/25 13:23:03;;;;;;;4.80;4.40;;;18.80;84.00;;;;;;6207515;23;20433;-89
2021/10/25 13:25:30;;;;;;;4.17;3.73;;;18.60;84.00;;;;;;6232701;22;20870;-89
2021/10/25 13:27:57;;;;;;;3.73;3.43;;;18.50;85.20;;;;;;6234539;22;20463;-89
2021/10/25 13:30:23;;;;;;;4.93;3.17;;;18.70;77.40;;;;;;6246225;23;20482;-90
2021/10/25 13:32:50;;;;;;;4.37;2.63;;;18.50;77.10;;;;;;6234180;22;20432;-89
2021/10/25 13:35:16;;;;;;;4.70;2.67;;;18.60;75.30;;;;;;6232963;22;20461;-89
2021/10/25 13:37:45;;;;;;;3.17;2.87;;;18.90;73.90;;;;;;6234081;22;20452;-91
2021/10/25 13:40:12;;;;;;;3.70;3.40;;;18.80;76.80;;;;;;6233072;22;20405;-92
2021/10/25 13:42:39;;;;;;;3.13;2.93;;;18.80;77.50;;;;;;6232284;22;20397;-88
2021/10/25 13:45:08;;;;;;;4.53;3.50;;;18.80;78.10;;;;;;6228785;22;20409;-88
2021/10/25 13:47:35;;;;;;;4.20;3.03;;;18.20;77.60;;;;;;6224059;22;20441;-89
2021/10/25 13:50:00;;;;;;;3.07;2.80;;;18.10;76.50;;;;;;6227754;22;20828;-89
2021/10/25 13:52:26;;;;;;;5.07;3.10;;;17.90;79.50;;;;;;6228254;22;20394;-88
2021/10/25 13:54:54;;;;;;;3.30;2.97;;;17.70;84.40;;;;;;6231506;23;20193;-90
2021/10/25 13:57:22;;;;;;;2.93;2.70;;;17.50;80.60;;;;;;6233693;22;20775;-89
2021/10/25 13:59:48;;;;;;;4.63;3.70;;;17.40;83.00;;;;;;6234885;22;20876;-89
2021/10/25 14:02:15;;;;;;;3.60;3.13;;;17.10;84.20;;;;;;6233315;22;20408;-89
2021/10/25 14:04:51;;;;;;;4.27;3.60;;;16.70;88.80;;;;;;6233019;22;20390;-89
2021/10/25 14:07:20;;;;;;;6.43;3.70;;;16.50;91.80;;;;;;6233395;23;21013;-89
2021/10/25 14:09:53;;;;;;;5.07;3.90;;;16.40;93.50;;;;;;6232952;22;20394;-89
2021/10/25 14:12:25;;;;;;;4.27;3.87;;;16.30;92.00;;;;;;6224530;23;20913;-89
2021/10/25 14:14:52;;;;;;;4.60;4.20;;;16.40;90.70;;;;;;6232871;22;20422;-89
2021/10/25 14:17:18;;;;;;;4.37;3.97;;;16.40;90.40;;;;;;6235698;22;20393;-89
2021/10/25 14:19:44;;;;;;;4.23;3.93;;;16.40;90.20;;;;;;6234725;22;20394;-88
2021/10/25 14:22:10;;;;;;;4.57;4.17;;;16.50;89.30;;;;;;6231586;22;20385;-87
2021/10/25 14:24:39;;;;;;;5.17;4.00;;;16.60;87.10;;;;;;6233577;22;20401;-87
2021/10/25 14:27:04;;;;;;;4.50;4.10;;;16.80;85.50;;;;;;6232832;22;20187;-87
2021/10/25 14:29:30;;;;;;;5.13;4.00;;;17.00;84.70;;;;;;6235935;22;20400;-87
2021/10/25 14:32:03;;;;;;;4.70;3.37;;;17.10;83.70;;;;;;6233229;22;20442;-85
2021/10/25 14:34:29;;;;;;;4.33;3.40;;;17.20;80.50;;;;;;6234611;22;20293;-86
2021/10/25 14:37:00;;;;;;;4.30;3.40;;;17.40;76.60;;;;;;6235193;23;20440;-86
2021/10/25 14:39:29;;;;;;;6.30;3.70;;;17.20;79.70;;;;;;6232939;22;20166;-87
2021/10/25 14:41:59;;;;;;;3.63;3.33;;;17.10;80.40;;;;;;6233221;22;20946;-86
2021/10/25 14:44:29;;;;;;;3.10;2.90;;;17.30;78.00;;;;;;6227859;23;20712;-86
2021/10/25 14:55:07;;;;;;;3.53;3.23;;;16.40;80.10;;;;;;6234790;22;20380;-87
2021/10/25 14:57:33;;;;;;;3.27;2.97;;;15.80;84.30;;;;;;6233190;22;20421;-87
2021/10/25 14:59:58;;;;;;;3.07;2.77;;;15.40;87.90;;;;;;6244925;22;20386;-87
2021/10/25 15:02:24;;;;;;;6.70;3.23;;;15.10;90.70;;;;;;6235948;22;20490;-87
2021/10/25 15:04:52;;;;;;;3.30;2.90;;;14.80;92.70;;;;;;6236081;22;20174;-87
2021/10/25 15:07:22;;;;;;;3.07;2.80;;;14.50;93.50;;;;;;6237220;22;20282;-87
2021/10/25 15:09:50;;;;;;;3.30;3.00;;;14.30;94.80;;;;;;6235478;22;20428;-87